Axtel, Kentucky
Current Conditions -  °F | °C
As of 1:58 AM on Friday 19 Dec 2014 (Local Time) from KFTK Reporting Station
Overcast Overcast  
Wind Chill: -1°   Ceiling: 5500
Heat Index: -1°   Visibility: 10mi
Dew Point: -4°   Wind: 3mph
Humidity: 81%   Direction: 340°NNW
Pressure: 30.23"   Gusts: NA
Location:  37.7834°N, 86.4612°W
Report Text: KFTK 190758Z AUTO 34003KT 10SM OVC055 M01/M03 A3023 RMK AO2 SLP247 T10061035
Loading
Personal Weather Stations






























Interactive Weather Map New forecast layout! Learn more

10-Day Weather Forecast

Advertisements
Track Severe Weather on mobile